createdAt,value
2022-09-28T00:02:05.001Z,11.93
2022-09-28T00:04:35.225Z,12.77
2022-09-28T00:07:02.433Z,13.68
2022-09-28T00:09:31.463Z,10.75
2022-09-28T00:11:58.608Z,17.17
2022-09-28T00:14:26.500Z,10.43
2022-09-28T00:16:55.442Z,11.43
2022-09-28T00:19:22.560Z,10.98
2022-09-28T00:21:49.636Z,11.88
2022-09-28T00:24:30.602Z,14.15
2022-09-28T00:27:00.783Z,35.05
2022-09-28T00:32:46.569Z,14.43
2022-09-28T00:35:13.666Z,13.40
2022-09-28T00:37:40.952Z,12.38
2022-09-28T00:40:08.425Z,11.43
2022-09-28T00:43:15.976Z,10.90
2022-09-28T00:45:43.397Z,10.55
2022-09-28T00:48:11.645Z,8.65
2022-09-28T00:50:39.822Z,10.63
2022-09-28T00:57:30.732Z,10.95
2022-09-28T01:00:00.311Z,10.85
2022-09-28T01:02:27.396Z,11.02
2022-09-28T01:05:16.416Z,9.45
2022-09-28T01:07:47.529Z,12.65
2022-09-28T01:10:15.427Z,12.57
2022-09-28T01:15:26.975Z,8.73
2022-09-28T01:26:47.353Z,12.55
2022-09-28T01:29:37.271Z,10.02
2022-09-28T01:32:44.777Z,12.43
2022-09-28T01:35:23.842Z,10.85
2022-09-28T01:38:14.257Z,10.43
2022-09-28T01:40:42.163Z,12.43
2022-09-28T01:44:25.713Z,13.68
2022-09-28T01:46:54.507Z,8.98
2022-09-28T01:49:47.785Z,12.15
2022-09-28T01:52:20.615Z,10.75
2022-09-28T01:55:12.467Z,10.18
2022-09-28T01:57:42.834Z,12.88
2022-09-28T02:00:18.285Z,10.27
2022-09-28T02:03:02.550Z,11.55
2022-09-28T02:06:49.093Z,10.82
2022-09-28T02:09:23.868Z,9.48
2022-09-28T02:12:26.204Z,13.30
2022-09-28T02:14:57.436Z,11.35
2022-09-28T02:17:31.330Z,11.27
2022-09-28T02:19:58.421Z,7.80
2022-09-28T02:30:53.478Z,10.32
2022-09-28T02:33:29.464Z,13.32
2022-09-28T02:36:19.945Z,9.90
2022-09-28T02:38:47.329Z,9.00
2022-09-28T02:46:22.850Z,8.38
2022-09-28T02:49:21.895Z,9.75
2022-09-28T02:57:15.811Z,9.52
2022-09-28T02:59:56.901Z,9.77
2022-09-28T03:02:57.546Z,9.90
2022-09-28T03:05:47.290Z,10.93
2022-09-28T03:12:20.813Z,8.82
2022-09-28T03:15:09.578Z,9.98
2022-09-28T03:17:37.709Z,12.25
2022-09-28T03:34:44.580Z,10.18
2022-09-28T03:37:12.423Z,9.75
2022-09-28T03:39:39.630Z,10.85
2022-09-28T03:42:06.926Z,13.95
2022-09-28T03:44:37.987Z,13.02
2022-09-28T03:47:08.155Z,11.13
2022-09-28T03:49:36.540Z,9.85
2022-09-28T03:52:17.256Z,10.02
2022-09-28T03:54:48.950Z,9.77
2022-09-28T04:00:23.232Z,10.55
2022-09-28T04:02:50.436Z,11.93
2022-09-28T04:06:32.454Z,10.57
2022-09-28T04:08:59.830Z,10.80
2022-09-28T04:20:48.311Z,14.57
2022-09-28T04:23:16.322Z,12.07
2022-09-28T04:29:28.209Z,12.30
2022-09-28T04:32:01.499Z,13.25
2022-09-28T04:35:39.740Z,12.48
2022-09-28T04:38:06.822Z,10.77
2022-09-28T04:40:33.964Z,14.52
2022-09-28T04:47:33.253Z,13.70
2022-09-28T04:50:20.685Z,18.92
2022-09-28T04:53:50.747Z,16.08
2022-09-28T04:56:19.736Z,16.05
2022-09-28T04:58:51.769Z,15.77
2022-09-28T05:06:08.158Z,18.65
2022-09-28T05:18:11.886Z,15.50
2022-09-28T05:20:47.936Z,14.90
2022-09-28T05:23:41.339Z,18.08
2022-09-28T05:26:08.622Z,14.40
2022-09-28T05:28:36.489Z,16.25
2022-09-28T05:31:23.916Z,13.80
2022-09-28T05:38:43.804Z,12.60
2022-09-28T05:41:11.157Z,12.85
2022-09-28T05:43:39.315Z,11.32
2022-09-28T05:46:34.813Z,14.52
2022-09-28T05:49:02.476Z,10.55
2022-09-28T05:51:29.611Z,12.93
2022-09-28T05:53:59.757Z,11.90
2022-09-28T05:56:31.434Z,11.50
2022-09-28T05:58:58.829Z,10.57
2022-09-28T06:01:29.140Z,15.60
2022-09-28T06:03:58.152Z,11.85
2022-09-28T06:06:26.637Z,9.85
2022-09-28T06:08:53.680Z,10.95
2022-09-28T06:11:39.371Z,11.60
2022-09-28T06:14:19.146Z,9.98
2022-09-28T06:16:46.416Z,11.38
2022-09-28T06:19:13.706Z,12.80
2022-09-28T06:21:59.521Z,9.43
2022-09-28T06:24:27.241Z,10.15
2022-09-28T06:26:54.298Z,11.55
2022-09-28T06:29:22.289Z,12.15
2022-09-28T06:31:49.382Z,9.63
2022-09-28T06:34:19.195Z,10.90
2022-09-28T06:36:46.695Z,8.35
2022-09-28T06:39:14.099Z,10.05
2022-09-28T06:41:41.934Z,9.80
2022-09-28T06:44:15.521Z,9.00
2022-09-28T06:47:02.112Z,11.18
2022-09-28T06:49:55.482Z,8.90
2022-09-28T06:52:53.283Z,8.40
2022-09-28T06:55:52.942Z,8.48
2022-09-28T06:58:21.802Z,8.75
2022-09-28T07:00:51.937Z,9.90
2022-09-28T07:03:21.797Z,7.35
2022-09-28T07:06:00.513Z,9.82
2022-09-28T07:09:25.989Z,9.65
2022-09-28T07:12:19.777Z,9.48
2022-09-28T07:14:57.520Z,11.23
2022-09-28T07:17:27.357Z,12.82
2022-09-28T07:20:00.287Z,10.60
2022-09-28T07:22:42.037Z,8.18
2022-09-28T07:25:12.949Z,7.22
2022-09-28T07:27:43.037Z,5.45
2022-09-28T07:30:36.611Z,5.60
2022-09-28T07:33:10.942Z,8.75
2022-09-28T07:35:52.441Z,6.45
2022-09-28T07:38:21.167Z,5.90
2022-09-28T07:41:07.216Z,4.82
2022-09-28T07:43:35.522Z,7.38
2022-09-28T07:46:04.591Z,3.92
2022-09-28T07:48:38.085Z,4.97
2022-09-28T07:51:28.184Z,4.80
2022-09-28T07:54:15.570Z,5.30
2022-09-28T07:57:09.117Z,4.85
2022-09-28T07:59:56.434Z,5.22
2022-09-28T08:02:43.936Z,5.97
2022-09-28T08:05:13.723Z,3.95
2022-09-28T08:07:41.166Z,6.13
2022-09-28T08:10:09.669Z,4.63
2022-09-28T08:13:05.510Z,4.13
2022-09-28T08:15:45.497Z,8.10
2022-09-28T08:18:20.681Z,3.97
2022-09-28T08:21:10.730Z,4.00
2022-09-28T08:23:38.832Z,4.97
2022-09-28T08:26:07.001Z,4.65
2022-09-28T08:28:35.518Z,5.30
2022-09-28T08:31:12.029Z,4.47
2022-09-28T08:34:05.198Z,5.97
2022-09-28T08:36:50.639Z,3.40
2022-09-28T08:39:47.050Z,4.43
2022-09-28T08:42:39.239Z,4.30
2022-09-28T08:45:41.987Z,2.67
2022-09-28T08:48:49.008Z,4.78
2022-09-28T08:51:54.970Z,3.83
2022-09-28T08:54:48.941Z,3.85
2022-09-28T08:57:36.277Z,4.35
2022-09-28T09:00:09.577Z,7.32
2022-09-28T09:02:42.420Z,3.30
2022-09-28T09:05:24.545Z,6.07
2022-09-28T09:08:07.764Z,3.30
2022-09-28T09:10:53.987Z,4.65
2022-09-28T09:13:41.836Z,5.10
2022-09-28T09:16:35.261Z,3.63
2022-09-28T09:19:36.297Z,2.63
2022-09-28T09:22:40.959Z,2.25
2022-09-28T09:25:09.020Z,2.13
2022-09-28T09:27:42.642Z,2.90
2022-09-28T09:30:13.025Z,2.95
2022-09-28T09:33:24.238Z,2.50
2022-09-28T09:36:28.931Z,2.15
2022-09-28T09:39:20.891Z,2.90
2022-09-28T09:42:28.458Z,2.30
2022-09-28T09:45:27.179Z,5.72
2022-09-28T09:48:22.811Z,2.22
2022-09-28T09:50:54.974Z,2.00
2022-09-28T09:53:50.023Z,1.90
2022-09-28T09:56:21.659Z,2.40
2022-09-28T09:59:24.389Z,1.90
2022-09-28T10:02:27.667Z,4.18
2022-09-28T10:05:12.784Z,2.47
2022-09-28T10:08:10.517Z,1.60
2022-09-28T10:10:49.678Z,2.08
2022-09-28T10:13:18.974Z,3.10
2022-09-28T10:15:50.618Z,6.72
2022-09-28T10:18:33.546Z,3.00
2022-09-28T10:21:23.210Z,1.23
2022-09-28T10:24:18.627Z,2.35
2022-09-28T10:26:50.626Z,1.42
2022-09-28T10:29:23.084Z,3.40
2022-09-28T10:31:52.150Z,2.10
2022-09-28T10:34:33.134Z,1.20
2022-09-28T10:37:11.184Z,1.45
2022-09-28T10:39:59.454Z,4.30
2022-09-28T10:42:32.504Z,5.00
2022-09-28T10:45:13.957Z,2.83
2022-09-28T10:47:44.766Z,2.65
2022-09-28T10:50:23.884Z,2.50
2022-09-28T10:53:17.973Z,2.35
2022-09-28T10:56:08.826Z,4.50
2022-09-28T10:58:40.701Z,2.17
2022-09-28T11:03:51.443Z,6.82
2022-09-28T11:06:31.258Z,8.32
2022-09-28T11:09:01.962Z,4.85
2022-09-28T11:11:29.863Z,1.30
2022-09-28T11:14:05.017Z,3.22
2022-09-28T11:16:36.606Z,2.38
2022-09-28T11:19:29.718Z,4.85
2022-09-28T11:21:56.810Z,5.90
2022-09-28T11:24:32.532Z,2.47
2022-09-28T11:27:02.898Z,5.90
2022-09-28T11:29:58.058Z,3.78
2022-09-28T11:32:42.938Z,3.85
2022-09-28T11:36:00.763Z,1.90
2022-09-28T11:38:46.303Z,3.75
2022-09-28T11:41:53.985Z,3.65
2022-09-28T11:44:31.014Z,2.35
2022-09-28T11:47:28.892Z,1.65
2022-09-28T11:49:59.158Z,4.90
2022-09-28T11:53:00.705Z,3.10
2022-09-28T11:55:38.681Z,2.88
2022-09-28T11:58:31.525Z,5.47
2022-09-28T12:01:18.757Z,3.33
2022-09-28T12:04:18.658Z,3.25
2022-09-28T12:06:59.156Z,4.30
2022-09-28T12:09:38.578Z,3.58
2022-09-28T12:12:24.735Z,4.28
2022-09-28T12:15:01.488Z,4.53
2022-09-28T12:17:39.001Z,3.22
2022-09-28T12:20:26.998Z,2.83
2022-09-28T12:22:59.722Z,2.92
2022-09-28T12:25:33.494Z,3.70
2022-09-28T12:28:05.968Z,2.03
2022-09-28T12:30:37.623Z,3.85
2022-09-28T12:33:07.232Z,3.75
2022-09-28T12:35:46.440Z,6.78
2022-09-28T12:38:13.484Z,3.28
2022-09-28T12:41:06.951Z,3.72
2022-09-28T12:43:40.731Z,3.47
2022-09-28T12:46:27.455Z,7.05
2022-09-28T12:52:00.422Z,3.10
2022-09-28T12:54:50.865Z,3.40
2022-09-28T12:57:42.731Z,4.38
2022-09-28T13:00:22.874Z,3.30
2022-09-28T13:03:08.364Z,3.67
2022-09-28T13:06:12.225Z,4.18
2022-09-28T13:09:01.586Z,4.75
2022-09-28T13:11:53.798Z,4.45
2022-09-28T13:14:58.596Z,2.30
2022-09-28T13:17:57.564Z,3.47
2022-09-28T13:20:39.730Z,3.03
2022-09-28T13:23:18.924Z,4.13
2022-09-28T13:26:04.754Z,4.03
2022-09-28T13:28:32.927Z,5.05
2022-09-28T13:31:02.399Z,4.97
2022-09-28T13:33:35.179Z,5.38
2022-09-28T13:36:05.031Z,5.03
2022-09-28T13:38:50.341Z,3.55
2022-09-28T13:41:24.831Z,7.03
2022-09-28T13:44:21.090Z,7.25
2022-09-28T13:47:21.277Z,7.13
2022-09-28T13:50:00.744Z,7.43
2022-09-28T13:52:44.276Z,5.97
2022-09-28T13:55:36.268Z,6.03
2022-09-28T13:58:37.589Z,9.07
2022-09-28T14:01:16.753Z,6.35
2022-09-28T14:04:13.209Z,4.78
2022-09-28T14:06:53.563Z,3.95
2022-09-28T14:09:45.790Z,3.50
2022-09-28T14:12:51.506Z,4.30
2022-09-28T14:15:29.139Z,4.20
2022-09-28T14:18:08.480Z,3.58
2022-09-28T14:20:36.704Z,7.78
2022-09-28T14:23:25.513Z,7.18
2022-09-28T14:26:27.655Z,6.32
2022-09-28T14:29:10.157Z,12.18
2022-09-28T14:31:42.459Z,10.13
2022-09-28T14:34:30.549Z,8.50
2022-09-28T14:37:16.514Z,6.40
2022-09-28T14:40:04.788Z,7.65
2022-09-28T14:42:31.963Z,8.60
2022-09-28T14:45:07.221Z,6.18
2022-09-28T14:48:04.767Z,7.07
2022-09-28T14:50:31.929Z,6.78
2022-09-28T14:53:13.628Z,11.10
2022-09-28T14:55:50.412Z,9.68
2022-09-28T14:58:26.808Z,12.07
2022-09-28T15:01:06.759Z,9.40
2022-09-28T15:03:35.573Z,9.52
2022-09-28T15:06:02.878Z,10.40
2022-09-28T15:08:40.047Z,9.20
2022-09-28T15:11:15.758Z,5.03
2022-09-28T15:13:43.625Z,7.95
2022-09-28T15:16:15.713Z,18.52
2022-09-28T15:18:52.076Z,30.85
2022-09-28T15:21:19.666Z,19.35
2022-09-28T15:23:47.302Z,18.13
2022-09-28T15:26:24.535Z,14.60
2022-09-28T15:28:51.861Z,8.73
2022-09-28T15:31:21.904Z,6.32
2022-09-28T15:34:07.802Z,5.38
2022-09-28T15:36:39.115Z,5.20
2022-09-28T15:39:18.815Z,5.65
2022-09-28T15:41:47.901Z,4.95
2022-09-28T15:44:33.304Z,4.45
2022-09-28T15:47:13.707Z,4.07
2022-09-28T15:49:46.874Z,5.70
2022-09-28T15:52:28.964Z,2.95
2022-09-28T15:54:57.311Z,3.88
2022-09-28T15:57:35.634Z,2.60
2022-09-28T16:00:04.412Z,5.05
2022-09-28T16:02:39.112Z,3.75
2022-09-28T16:05:35.958Z,4.10
2022-09-28T16:08:05.118Z,4.28
2022-09-28T16:10:34.535Z,3.72
2022-09-28T16:13:20.574Z,6.35
2022-09-28T16:15:58.176Z,4.82
2022-09-28T16:18:27.470Z,5.22
2022-09-28T16:20:57.054Z,10.50
2022-09-28T16:23:31.501Z,3.80
2022-09-28T16:26:06.357Z,4.95
2022-09-28T16:28:36.084Z,3.97
2022-09-28T16:31:10.845Z,4.38
2022-09-28T16:33:46.847Z,4.00
2022-09-28T16:36:19.824Z,3.72
2022-09-28T16:38:47.907Z,3.83
2022-09-28T16:41:22.227Z,7.00
2022-09-28T16:46:30.355Z,7.55
2022-09-28T16:49:01.672Z,6.13
2022-09-28T16:51:28.959Z,5.07
2022-09-28T16:54:30.253Z,6.82
2022-09-28T16:56:57.311Z,6.22
2022-09-28T16:59:24.444Z,6.50
2022-09-28T17:01:51.625Z,6.60
2022-09-28T17:04:18.911Z,10.07
2022-09-28T17:06:46.142Z,6.85
2022-09-28T17:09:13.296Z,8.63
2022-09-28T17:11:40.578Z,6.07
2022-09-28T17:14:08.972Z,8.80
2022-09-28T17:17:06.218Z,5.60
2022-09-28T17:19:25.690Z,7.45
2022-09-28T17:21:53.418Z,8.10
2022-09-28T17:24:20.939Z,6.80
2022-09-28T17:26:51.020Z,6.97
2022-09-28T17:29:18.761Z,7.30
2022-09-28T17:31:46.965Z,7.32
2022-09-28T17:34:16.273Z,9.48
2022-09-28T17:36:44.872Z,6.50
2022-09-28T17:39:17.614Z,7.57
2022-09-28T17:41:45.283Z,6.03
2022-09-28T17:44:16.424Z,7.60
2022-09-28T17:46:47.645Z,9.20
2022-09-28T17:49:15.489Z,9.07
2022-09-28T17:51:42.748Z,10.55
2022-09-28T17:54:10.129Z,10.68
2022-09-28T17:56:37.725Z,13.25
2022-09-28T17:59:07.236Z,11.43
2022-09-28T18:01:37.949Z,12.13
2022-09-28T18:04:08.218Z,10.68
2022-09-28T18:06:37.357Z,8.73
2022-09-28T18:09:05.649Z,10.35
2022-09-28T18:11:33.871Z,9.35
2022-09-28T18:14:01.631Z,11.88
2022-09-28T18:16:29.280Z,10.82
2022-09-28T18:18:56.626Z,9.70
2022-09-28T18:21:23.675Z,8.82
2022-09-28T18:23:50.811Z,13.68
2022-09-28T18:26:19.724Z,12.45
2022-09-28T18:28:47.356Z,13.32
2022-09-28T18:31:15.930Z,10.15
2022-09-28T18:33:43.501Z,16.95
2022-09-28T18:36:10.732Z,12.60
2022-09-28T18:38:38.501Z,13.95
2022-09-28T18:41:14.541Z,12.93
2022-09-28T18:43:42.734Z,9.43
2022-09-28T18:46:11.356Z,16.33
2022-09-28T18:48:40.627Z,11.68
2022-09-28T18:51:13.803Z,12.48
2022-09-28T18:53:41.807Z,16.63
2022-09-28T18:56:14.482Z,12.18
2022-09-28T18:58:42.663Z,12.75
2022-09-28T19:01:31.321Z,11.75
2022-09-28T19:04:04.984Z,14.35
2022-09-28T19:06:32.870Z,12.77
2022-09-28T19:09:01.616Z,11.55
2022-09-28T19:11:28.894Z,10.77
2022-09-28T19:13:56.697Z,12.30
2022-09-28T19:16:29.127Z,9.25
2022-09-28T19:18:58.171Z,12.88
2022-09-28T19:21:25.777Z,12.98
2022-09-28T19:23:55.345Z,13.55
2022-09-28T19:26:27.533Z,11.80
2022-09-28T19:28:56.587Z,12.98
2022-09-28T19:31:24.756Z,14.50
2022-09-28T19:33:53.042Z,14.93
2022-09-28T19:36:24.991Z,12.40
2022-09-28T19:38:53.605Z,14.68
2022-09-28T19:41:44.733Z,15.82
2022-09-28T19:44:27.082Z,12.27
2022-09-28T19:47:07.484Z,11.73
2022-09-28T19:49:37.276Z,14.13
2022-09-28T19:52:16.182Z,14.02
2022-09-28T19:54:58.259Z,12.65
2022-09-28T19:57:27.850Z,15.25
2022-09-28T20:00:00.806Z,17.60
2022-09-28T20:02:33.620Z,15.60
2022-09-28T20:05:01.772Z,16.60
2022-09-28T20:07:33.158Z,18.52
2022-09-28T20:10:02.033Z,16.23
2022-09-28T20:12:29.158Z,14.07
2022-09-28T20:14:56.197Z,13.48
2022-09-28T20:17:23.316Z,18.58
2022-09-28T20:19:51.961Z,13.00
2022-09-28T20:22:19.966Z,14.77
2022-09-28T20:24:47.052Z,14.95
2022-09-28T20:27:14.168Z,14.63
2022-09-28T20:29:43.140Z,15.15
2022-09-28T20:32:11.760Z,15.52
2022-09-28T20:34:38.930Z,15.32
2022-09-28T20:37:06.089Z,15.27
2022-09-28T20:39:33.131Z,14.35
2022-09-28T20:42:00.294Z,12.65
2022-09-28T20:44:27.442Z,13.40
2022-09-28T20:46:54.731Z,15.70
2022-09-28T20:49:21.883Z,17.17
2022-09-28T20:51:48.955Z,14.05
2022-09-28T20:54:16.134Z,14.15
2022-09-28T20:56:43.260Z,15.68
2022-09-28T20:59:12.066Z,16.92
2022-09-28T21:01:39.935Z,17.90
2022-09-28T21:04:08.620Z,16.35
2022-09-28T21:06:38.061Z,15.70
2022-09-28T21:09:06.514Z,15.98
2022-09-28T21:11:35.836Z,18.13
2022-09-28T21:14:06.487Z,16.05
2022-09-28T21:16:34.977Z,16.05
2022-09-28T21:19:02.326Z,15.57
2022-09-28T21:21:30.218Z,13.50
2022-09-28T21:23:58.242Z,12.98
2022-09-28T21:26:27.908Z,16.13
2022-09-28T21:29:03.354Z,15.85
2022-09-28T21:31:32.850Z,14.57
2022-09-28T21:34:00.756Z,16.63
2022-09-28T21:36:27.812Z,12.25
2022-09-28T21:38:55.679Z,16.70
2022-09-28T21:41:23.689Z,13.55
2022-09-28T21:43:50.814Z,15.50
2022-09-28T21:46:18.193Z,13.15
2022-09-28T21:48:45.530Z,14.10
2022-09-28T21:51:16.200Z,15.95
2022-09-28T21:53:43.249Z,13.05
2022-09-28T21:56:12.456Z,16.48
2022-09-28T21:58:40.264Z,19.20
2022-09-28T22:01:13.159Z,29.70
2022-09-28T22:03:41.503Z,29.60
2022-09-28T22:06:08.890Z,29.38
2022-09-28T22:08:37.049Z,26.33
2022-09-28T22:11:06.663Z,23.85
2022-09-28T22:13:42.497Z,24.52
2022-09-28T22:16:13.900Z,26.67
2022-09-28T22:18:41.070Z,32.85
2022-09-28T22:21:15.839Z,30.73
2022-09-28T22:23:43.311Z,29.88
2022-09-28T22:26:13.058Z,29.77
2022-09-28T22:28:49.560Z,27.13
2022-09-28T22:31:19.012Z,27.02
2022-09-28T22:33:46.229Z,26.55
2022-09-28T22:36:17.916Z,24.10
2022-09-28T22:38:45.982Z,29.45
2022-09-28T22:41:16.029Z,28.30
2022-09-28T22:43:43.524Z,41.65
2022-09-28T22:46:12.833Z,42.92
2022-09-28T22:48:40.500Z,55.70
2022-09-28T22:51:07.715Z,45.40
2022-09-28T22:53:35.791Z,36.42
2022-09-28T22:56:05.666Z,30.75
2022-09-28T22:58:35.916Z,27.25
2022-09-28T23:01:10.889Z,24.55
2022-09-28T23:03:42.669Z,24.80
2022-09-28T23:06:11.046Z,22.02
2022-09-28T23:09:23.925Z,21.25
2022-09-28T23:11:50.968Z,14.95
2022-09-28T23:14:19.633Z,14.50
2022-09-28T23:16:46.640Z,12.07
2022-09-28T23:19:13.713Z,13.50
2022-09-28T23:21:40.746Z,10.02
2022-09-28T23:24:10.433Z,11.82
2022-09-28T23:26:38.513Z,10.55
2022-09-28T23:29:06.172Z,8.98
2022-09-28T23:31:33.809Z,8.93
2022-09-28T23:34:28.115Z,11.57
2022-09-28T23:36:56.955Z,11.43
2022-09-28T23:39:24.004Z,11.95
2022-09-28T23:41:51.105Z,11.48
2022-09-28T23:44:18.154Z,12.35
2022-09-28T23:46:45.355Z,11.55
2022-09-28T23:49:12.638Z,11.90
2022-09-28T23:51:39.740Z,10.60
2022-09-28T23:54:06.993Z,10.50
2022-09-28T23:56:34.119Z,13.02
2022-09-28T23:59:01.177Z,10.23
